createdAt,value
2022-12-03T12:43:34.960Z,37.45
2022-12-03T12:46:46.071Z,41.03
2022-12-03T12:49:01.601Z,39.28
2022-12-03T12:51:29.564Z,40.80
2022-12-03T12:53:57.479Z,42.88
2022-12-03T12:56:26.318Z,35.05
2022-12-03T12:58:54.490Z,43.55
2022-12-03T13:01:26.471Z,30.58
2022-12-03T13:03:54.825Z,40.03
2022-12-03T13:06:31.339Z,30.25
2022-12-03T13:09:01.270Z,35.88
2022-12-03T13:11:45.843Z,65.37
2022-12-03T13:14:19.891Z,34.78
2022-12-03T13:16:49.259Z,30.55
2022-12-03T13:19:23.169Z,31.50
2022-12-03T13:22:03.225Z,29.87
2022-12-03T13:24:37.041Z,35.80
2022-12-03T13:27:13.936Z,29.15
2022-12-03T13:29:42.306Z,30.08
2022-12-03T13:32:16.036Z,29.40
2022-12-03T13:34:44.986Z,31.60
2022-12-03T13:37:15.783Z,35.00
2022-12-03T13:39:51.148Z,31.45
2022-12-03T13:42:41.566Z,28.75
2022-12-03T13:45:15.119Z,31.60
2022-12-03T13:47:47.030Z,32.55
2022-12-03T13:50:24.583Z,32.83
2022-12-03T13:52:53.121Z,40.12
2022-12-03T13:55:31.472Z,41.78
2022-12-03T13:57:59.393Z,33.10
2022-12-03T14:00:26.968Z,32.85
2022-12-03T14:02:55.028Z,31.52
2022-12-03T14:05:22.692Z,33.53
2022-12-03T14:07:50.273Z,38.08
2022-12-03T14:10:18.286Z,34.92
2022-12-03T14:12:45.814Z,33.83
2022-12-03T14:15:14.400Z,36.47
2022-12-03T14:17:42.388Z,43.40
2022-12-03T14:20:10.670Z,37.10
2022-12-03T14:22:39.133Z,34.95
2022-12-03T14:25:07.374Z,48.08
2022-12-03T14:27:35.354Z,54.63
2022-12-03T14:30:04.112Z,61.95
2022-12-03T14:32:32.027Z,61.90
2022-12-03T14:35:00.462Z,60.30
2022-12-03T14:37:29.592Z,56.67
2022-12-03T14:39:57.585Z,49.88
2022-12-03T14:42:25.355Z,50.67
2022-12-03T14:44:52.962Z,44.53
2022-12-03T14:47:25.264Z,45.22
2022-12-03T14:49:53.326Z,51.90
2022-12-03T14:52:21.585Z,106.03
2022-12-03T14:54:49.506Z,108.53
2022-12-03T14:57:17.329Z,147.23
2022-12-03T14:59:47.033Z,86.03
2022-12-03T15:02:14.696Z,57.38
2022-12-03T15:04:42.301Z,47.22
2022-12-03T15:07:10.158Z,49.72
2022-12-03T15:09:37.975Z,42.95
2022-12-03T15:12:06.052Z,43.40
2022-12-03T15:14:34.043Z,42.67
2022-12-03T15:17:01.686Z,37.08
2022-12-03T15:19:29.571Z,38.13
2022-12-03T15:21:57.397Z,44.50
2022-12-03T15:24:24.928Z,41.72
2022-12-03T15:26:53.577Z,46.20
2022-12-03T15:29:21.814Z,42.45
2022-12-03T15:31:49.413Z,61.67
2022-12-03T15:34:22.182Z,66.12
2022-12-03T15:36:51.238Z,75.85
2022-12-03T15:39:19.465Z,86.57
2022-12-03T15:41:47.123Z,59.75
2022-12-03T15:44:15.114Z,59.65
2022-12-03T15:46:42.732Z,56.55
2022-12-03T15:49:10.325Z,48.20
2022-12-03T15:51:38.193Z,52.22
2022-12-03T15:54:06.547Z,47.83
2022-12-03T15:56:37.635Z,55.63
2022-12-03T15:59:06.026Z,74.75
2022-12-03T16:01:33.989Z,67.07
2022-12-03T16:04:02.173Z,80.32
2022-12-03T16:06:30.074Z,86.12
2022-12-03T16:08:57.771Z,86.53
2022-12-03T16:11:26.053Z,70.05
2022-12-03T16:13:53.605Z,67.90
2022-12-03T16:16:21.224Z,70.85
2022-12-03T16:18:49.189Z,69.05
2022-12-03T16:21:18.860Z,69.55
2022-12-03T16:23:49.889Z,70.90
2022-12-03T16:26:17.438Z,71.85
2022-12-03T16:28:45.088Z,94.00
2022-12-03T16:31:13.187Z,89.03
2022-12-03T16:33:40.727Z,92.88
2022-12-03T16:36:08.640Z,98.55
2022-12-03T16:38:36.831Z,94.53
2022-12-03T16:41:04.492Z,84.60
2022-12-03T16:43:35.645Z,65.87
2022-12-03T16:48:48.582Z,59.83
2022-12-03T16:51:19.383Z,63.92
2022-12-03T16:53:48.267Z,61.05
2022-12-03T16:56:16.961Z,56.83
2022-12-03T16:58:45.212Z,49.17
2022-12-03T17:01:13.068Z,50.63
2022-12-03T17:03:42.237Z,53.83
2022-12-03T17:06:10.053Z,61.58
2022-12-03T17:08:37.732Z,74.82
2022-12-03T17:11:05.889Z,355.52
2022-12-03T17:13:33.563Z,148.68
2022-12-03T17:16:02.113Z,84.90
2022-12-03T17:18:30.146Z,77.20
2022-12-03T17:20:58.008Z,74.78
2022-12-03T17:23:25.633Z,66.90
2022-12-03T17:25:53.501Z,56.33
2022-12-03T17:28:21.038Z,58.50
2022-12-03T17:30:48.717Z,66.47
2022-12-03T17:33:16.684Z,121.13
2022-12-03T17:35:45.596Z,62.13
2022-12-03T17:38:13.118Z,54.05
2022-12-03T17:40:41.159Z,48.30
2022-12-03T17:43:08.710Z,51.83
2022-12-03T17:45:36.830Z,53.95
2022-12-03T17:48:05.462Z,50.47
2022-12-03T17:50:34.291Z,49.03
2022-12-03T17:53:05.359Z,52.67
2022-12-03T17:55:41.004Z,58.95
2022-12-03T17:58:13.335Z,50.78
2022-12-03T18:00:41.611Z,64.05
2022-12-03T18:03:09.502Z,84.35
2022-12-03T18:05:37.180Z,97.88
2022-12-03T18:08:05.070Z,130.07
2022-12-03T18:10:32.992Z,144.62
2022-12-03T18:13:02.107Z,144.82
2022-12-03T18:15:30.719Z,123.82
2022-12-03T18:17:58.981Z,88.47
2022-12-03T18:20:26.731Z,69.87
2022-12-03T18:22:54.353Z,59.33
2022-12-03T18:25:26.042Z,74.75
2022-12-03T18:27:53.638Z,124.55
2022-12-03T18:30:21.407Z,60.22
2022-12-03T18:32:52.993Z,41.13
2022-12-03T18:35:20.813Z,53.70
2022-12-03T18:37:50.815Z,59.17
2022-12-03T18:40:23.927Z,54.33
2022-12-03T18:42:51.700Z,44.28
2022-12-03T18:45:20.024Z,62.92
2022-12-03T18:47:47.793Z,59.20
2022-12-03T18:50:15.449Z,55.88
2022-12-03T18:52:43.418Z,42.65
2022-12-03T18:55:18.835Z,43.47
2022-12-03T18:57:47.417Z,45.22
2022-12-03T19:00:16.046Z,37.88
2022-12-03T19:03:02.607Z,41.37
2022-12-03T19:05:34.815Z,41.90
2022-12-03T19:08:03.495Z,42.33
2022-12-03T19:10:31.860Z,35.63
2022-12-03T19:12:59.710Z,39.45
2022-12-03T19:15:27.649Z,34.30
2022-12-03T19:17:57.656Z,37.00
2022-12-03T19:20:25.393Z,37.65
2022-12-03T19:22:53.260Z,40.40
2022-12-03T19:25:21.814Z,35.65
2022-12-03T19:27:50.793Z,36.28
2022-12-03T19:30:19.220Z,35.33
2022-12-03T19:32:51.608Z,38.33
2022-12-03T19:35:21.345Z,45.70
2022-12-03T19:37:50.190Z,47.85
2022-12-03T19:40:18.254Z,49.47
2022-12-03T19:42:46.484Z,58.90
2022-12-03T19:45:14.767Z,50.72
2022-12-03T19:47:42.789Z,50.88
2022-12-03T19:50:11.326Z,85.12
2022-12-03T19:52:39.379Z,143.90
2022-12-03T19:55:07.617Z,61.15
2022-12-03T19:57:35.561Z,47.97
2022-12-03T20:00:05.414Z,47.60
2022-12-03T20:02:39.999Z,46.42
2022-12-03T20:05:08.313Z,43.87
2022-12-03T20:07:36.148Z,48.22
2022-12-03T20:10:04.955Z,46.63
2022-12-03T20:12:33.284Z,57.60
2022-12-03T20:15:01.118Z,62.58
2022-12-03T20:17:28.796Z,64.87
2022-12-03T20:19:57.249Z,65.20
2022-12-03T20:22:25.628Z,61.80
2022-12-03T20:24:53.680Z,56.58
2022-12-03T20:27:23.155Z,55.60
2022-12-03T20:29:51.252Z,56.20
2022-12-03T20:32:19.182Z,47.33
2022-12-03T20:34:47.262Z,46.47
2022-12-03T20:37:15.222Z,37.08
2022-12-03T20:39:43.187Z,39.35
2022-12-03T20:42:11.688Z,42.75
2022-12-03T20:44:39.527Z,46.28
2022-12-03T20:47:07.373Z,39.75
2022-12-03T20:49:35.745Z,41.22
2022-12-03T20:52:04.884Z,40.63
2022-12-03T20:54:32.839Z,37.65
2022-12-03T20:57:00.997Z,41.25
2022-12-03T20:59:29.027Z,43.10
2022-12-03T21:01:56.884Z,43.58
2022-12-03T21:04:24.870Z,42.90
2022-12-03T21:06:52.442Z,41.92
2022-12-03T21:09:20.277Z,43.63
2022-12-03T21:11:48.443Z,42.65
2022-12-03T21:14:16.086Z,44.20
2022-12-03T21:19:38.562Z,39.25
2022-12-03T21:22:06.574Z,36.28
2022-12-03T21:24:34.452Z,38.10
2022-12-03T21:27:03.690Z,37.28
2022-12-03T21:29:31.594Z,35.05
2022-12-03T21:31:59.396Z,37.78
2022-12-03T21:34:31.327Z,46.42
2022-12-03T21:37:03.614Z,42.42
2022-12-03T21:39:31.755Z,39.97
2022-12-03T21:42:33.353Z,38.60
2022-12-03T21:44:47.211Z,40.53
2022-12-03T21:47:14.900Z,52.05
2022-12-03T21:49:42.666Z,45.53
2022-12-03T21:52:10.995Z,44.00
2022-12-03T21:54:38.572Z,48.83
2022-12-03T21:57:06.375Z,41.78
2022-12-03T21:59:34.653Z,36.13
2022-12-03T22:02:02.547Z,43.13
2022-12-03T22:04:30.573Z,36.50
2022-12-03T22:06:58.130Z,41.75
2022-12-03T22:09:26.891Z,34.38
2022-12-03T22:11:56.951Z,38.63
2022-12-03T22:14:25.093Z,40.80
2022-12-03T22:16:52.680Z,41.37
2022-12-03T22:19:24.758Z,37.88
2022-12-03T22:21:52.488Z,37.85
2022-12-03T22:24:20.378Z,38.00
2022-12-03T22:26:47.918Z,35.13
2022-12-03T22:29:15.671Z,34.25
2022-12-03T22:31:44.346Z,36.25
2022-12-03T22:34:12.190Z,32.78
2022-12-03T22:36:39.699Z,32.03
2022-12-03T22:39:07.583Z,38.05
2022-12-03T22:41:35.166Z,33.70
2022-12-03T22:44:02.774Z,35.53
2022-12-03T22:46:30.879Z,33.78
2022-12-03T22:49:01.810Z,34.33
2022-12-03T22:51:33.025Z,34.05
2022-12-03T22:54:01.866Z,36.13
2022-12-03T22:56:30.580Z,36.95
2022-12-03T22:58:58.760Z,33.17
2022-12-03T23:01:32.170Z,34.95
2022-12-03T23:04:01.187Z,34.60
2022-12-03T23:06:30.523Z,34.60
2022-12-03T23:08:58.863Z,31.87
2022-12-03T23:11:27.490Z,37.35
2022-12-03T23:13:55.188Z,35.70
2022-12-03T23:16:26.734Z,34.35
2022-12-03T23:18:54.801Z,35.25
2022-12-03T23:21:29.977Z,32.92
2022-12-03T23:23:59.445Z,32.10
2022-12-03T23:26:28.365Z,38.15
2022-12-03T23:28:56.624Z,32.28
2022-12-03T23:31:27.829Z,33.30
2022-12-03T23:33:56.963Z,35.65
2022-12-03T23:36:27.195Z,35.00
2022-12-03T23:38:54.879Z,34.80
2022-12-03T23:41:23.950Z,32.00
2022-12-03T23:43:52.453Z,34.15
2022-12-03T23:46:23.725Z,34.70
2022-12-03T23:48:52.223Z,32.38
2022-12-03T23:51:23.799Z,35.88
2022-12-03T23:53:53.179Z,34.28
2022-12-03T23:56:24.237Z,35.92
2022-12-03T23:58:51.806Z,31.08
